sensor_id;sensor_type;location;lat;lon;timestamp;P1;durP1;ratioP1;P2;durP2;ratioP2
69244;SDS011;56357;52.304;4.870;2022-10-16T00:01:24;4.65;;;0.68;;
69244;SDS011;56357;52.304;4.870;2022-10-16T00:03:53;3.53;;;0.50;;
69244;SDS011;56357;52.304;4.870;2022-10-16T00:06:21;3.47;;;0.50;;
69244;SDS011;56357;52.304;4.870;2022-10-16T00:08:49;2.20;;;0.30;;
69244;SDS011;56357;52.304;4.870;2022-10-16T00:11:20;4.07;;;0.60;;
69244;SDS011;56357;52.304;4.870;2022-10-16T00:13:49;2.67;;;0.47;;
69244;SDS011;56357;52.304;4.870;2022-10-16T00:16:17;3.72;;;0.60;;
69244;SDS011;56357;52.304;4.870;2022-10-16T00:18:44;3.20;;;0.50;;
69244;SDS011;56357;52.304;4.870;2022-10-16T00:21:22;3.60;;;0.50;;
69244;SDS011;56357;52.304;4.870;2022-10-16T00:23:51;3.22;;;0.47;;
69244;SDS011;56357;52.304;4.870;2022-10-16T00:26:21;3.70;;;0.60;;
69244;SDS011;56357;52.304;4.870;2022-10-16T00:28:49;3.30;;;0.52;;
69244;SDS011;56357;52.304;4.870;2022-10-16T00:31:17;3.95;;;0.55;;
69244;SDS011;56357;52.304;4.870;2022-10-16T00:33:45;3.47;;;0.67;;
69244;SDS011;56357;52.304;4.870;2022-10-16T00:36:13;3.10;;;0.60;;
69244;SDS011;56357;52.304;4.870;2022-10-16T00:38:40;2.65;;;0.40;;
69244;SDS011;56357;52.304;4.870;2022-10-16T00:41:09;3.08;;;0.40;;
69244;SDS011;56357;52.304;4.870;2022-10-16T00:46:19;3.37;;;0.50;;
69244;SDS011;56357;52.304;4.870;2022-10-16T00:48:56;4.85;;;0.80;;
69244;SDS011;56357;52.304;4.870;2022-10-16T00:51:30;3.88;;;0.50;;
69244;SDS011;56357;52.304;4.870;2022-10-16T00:53:59;3.53;;;0.52;;
69244;SDS011;56357;52.304;4.870;2022-10-16T00:56:28;3.83;;;0.50;;
69244;SDS011;56357;52.304;4.870;2022-10-16T00:58:54;3.43;;;0.47;;
69244;SDS011;56357;52.304;4.870;2022-10-16T01:01:21;3.38;;;0.50;;
69244;SDS011;56357;52.304;4.870;2022-10-16T01:03:47;2.40;;;0.40;;
69244;SDS011;56357;52.304;4.870;2022-10-16T01:06:19;3.72;;;0.63;;
69244;SDS011;56357;52.304;4.870;2022-10-16T01:14:32;2.90;;;0.52;;
69244;SDS011;56357;52.304;4.870;2022-10-16T01:17:28;3.78;;;0.50;;
69244;SDS011;56357;52.304;4.870;2022-10-16T01:20:03;2.78;;;0.40;;
69244;SDS011;56357;52.304;4.870;2022-10-16T01:22:38;3.38;;;0.50;;
69244;SDS011;56357;52.304;4.870;2022-10-16T01:25:28;4.20;;;0.63;;
69244;SDS011;56357;52.304;4.870;2022-10-16T01:28:08;3.80;;;0.57;;
69244;SDS011;56357;52.304;4.870;2022-10-16T01:30:37;3.30;;;0.40;;
69244;SDS011;56357;52.304;4.870;2022-10-16T01:33:16;3.72;;;0.50;;
69244;SDS011;56357;52.304;4.870;2022-10-16T01:35:53;3.22;;;0.50;;
69244;SDS011;56357;52.304;4.870;2022-10-16T01:38:34;3.77;;;0.30;;
69244;SDS011;56357;52.304;4.870;2022-10-16T01:41:06;2.85;;;0.47;;
69244;SDS011;56357;52.304;4.870;2022-10-16T01:43:37;3.30;;;0.50;;
69244;SDS011;56357;52.304;4.870;2022-10-16T01:46:08;3.20;;;0.77;;
69244;SDS011;56357;52.304;4.870;2022-10-16T01:48:36;2.78;;;0.40;;
69244;SDS011;56357;52.304;4.870;2022-10-16T01:51:08;2.63;;;0.40;;
69244;SDS011;56357;52.304;4.870;2022-10-16T01:53:37;4.78;;;0.60;;
69244;SDS011;56357;52.304;4.870;2022-10-16T01:56:08;2.35;;;0.47;;
69244;SDS011;56357;52.304;4.870;2022-10-16T01:58:38;3.22;;;0.40;;
69244;SDS011;56357;52.304;4.870;2022-10-16T02:01:09;3.35;;;0.40;;
69244;SDS011;56357;52.304;4.870;2022-10-16T02:03:40;3.90;;;0.60;;
69244;SDS011;56357;52.304;4.870;2022-10-16T02:06:08;3.88;;;0.50;;
69244;SDS011;56357;52.304;4.870;2022-10-16T02:08:34;3.35;;;0.60;;
69244;SDS011;56357;52.304;4.870;2022-10-16T02:11:03;5.40;;;0.60;;
69244;SDS011;56357;52.304;4.870;2022-10-16T02:13:34;3.55;;;0.60;;
69244;SDS011;56357;52.304;4.870;2022-10-16T02:16:04;2.87;;;0.40;;
69244;SDS011;56357;52.304;4.870;2022-10-16T02:18:31;3.72;;;0.30;;
69244;SDS011;56357;52.304;4.870;2022-10-16T02:23:40;3.50;;;0.50;;
69244;SDS011;56357;52.304;4.870;2022-10-16T02:26:33;4.15;;;0.50;;
69244;SDS011;56357;52.304;4.870;2022-10-16T02:29:06;3.33;;;0.50;;
69244;SDS011;56357;52.304;4.870;2022-10-16T02:31:38;3.28;;;0.52;;
69244;SDS011;56357;52.304;4.870;2022-10-16T02:34:08;4.88;;;0.73;;
69244;SDS011;56357;52.304;4.870;2022-10-16T02:36:36;2.70;;;0.40;;
69244;SDS011;56357;52.304;4.870;2022-10-16T02:39:05;3.20;;;0.52;;
69244;SDS011;56357;52.304;4.870;2022-10-16T02:41:32;2.40;;;0.40;;
69244;SDS011;56357;52.304;4.870;2022-10-16T02:43:59;3.80;;;0.65;;
69244;SDS011;56357;52.304;4.870;2022-10-16T02:46:25;2.92;;;0.50;;
69244;SDS011;56357;52.304;4.870;2022-10-16T02:48:51;3.20;;;0.70;;
69244;SDS011;56357;52.304;4.870;2022-10-16T02:51:18;3.30;;;0.55;;
69244;SDS011;56357;52.304;4.870;2022-10-16T02:53:44;3.13;;;0.47;;
69244;SDS011;56357;52.304;4.870;2022-10-16T02:56:10;5.13;;;0.60;;
69244;SDS011;56357;52.304;4.870;2022-10-16T02:58:37;3.15;;;0.50;;
69244;SDS011;56357;52.304;4.870;2022-10-16T03:01:03;6.03;;;0.75;;
69244;SDS011;56357;52.304;4.870;2022-10-16T03:03:30;4.38;;;0.70;;
69244;SDS011;56357;52.304;4.870;2022-10-16T03:05:56;3.10;;;0.70;;
69244;SDS011;56357;52.304;4.870;2022-10-16T03:08:22;4.07;;;0.40;;
69244;SDS011;56357;52.304;4.870;2022-10-16T03:10:50;2.90;;;0.60;;
69244;SDS011;56357;52.304;4.870;2022-10-16T03:13:17;3.42;;;0.70;;
69244;SDS011;56357;52.304;4.870;2022-10-16T03:15:45;3.35;;;0.50;;
69244;SDS011;56357;52.304;4.870;2022-10-16T03:18:12;4.00;;;0.50;;
69244;SDS011;56357;52.304;4.870;2022-10-16T03:20:38;2.58;;;0.50;;
69244;SDS011;56357;52.304;4.870;2022-10-16T03:23:05;5.20;;;0.60;;
69244;SDS011;56357;52.304;4.870;2022-10-16T03:25:33;3.88;;;0.50;;
69244;SDS011;56357;52.304;4.870;2022-10-16T03:27:59;4.60;;;0.45;;
69244;SDS011;56357;52.304;4.870;2022-10-16T03:30:25;3.20;;;0.60;;
69244;SDS011;56357;52.304;4.870;2022-10-16T03:32:52;5.50;;;0.43;;
69244;SDS011;56357;52.304;4.870;2022-10-16T03:35:22;2.90;;;0.40;;
69244;SDS011;56357;52.304;4.870;2022-10-16T03:37:50;3.88;;;0.40;;
69244;SDS011;56357;52.304;4.870;2022-10-16T03:40:16;3.85;;;0.73;;
69244;SDS011;56357;52.304;4.870;2022-10-16T03:42:43;2.70;;;0.50;;
69244;SDS011;56357;52.304;4.870;2022-10-16T03:45:10;5.25;;;0.57;;
69244;SDS011;56357;52.304;4.870;2022-10-16T03:47:37;3.70;;;0.52;;
69244;SDS011;56357;52.304;4.870;2022-10-16T03:50:03;3.65;;;0.45;;
69244;SDS011;56357;52.304;4.870;2022-10-16T03:52:30;4.78;;;0.63;;
69244;SDS011;56357;52.304;4.870;2022-10-16T03:54:57;4.90;;;0.60;;
69244;SDS011;56357;52.304;4.870;2022-10-16T03:57:24;3.17;;;0.50;;
69244;SDS011;56357;52.304;4.870;2022-10-16T03:59:50;3.83;;;0.57;;
69244;SDS011;56357;52.304;4.870;2022-10-16T04:02:16;3.35;;;0.55;;
69244;SDS011;56357;52.304;4.870;2022-10-16T04:04:43;3.72;;;0.70;;
69244;SDS011;56357;52.304;4.870;2022-10-16T04:07:09;4.50;;;0.57;;
69244;SDS011;56357;52.304;4.870;2022-10-16T04:09:35;3.53;;;0.60;;
69244;SDS011;56357;52.304;4.870;2022-10-16T04:12:02;3.78;;;0.70;;
69244;SDS011;56357;52.304;4.870;2022-10-16T04:14:28;3.67;;;0.70;;
69244;SDS011;56357;52.304;4.870;2022-10-16T04:16:55;3.25;;;0.50;;
69244;SDS011;56357;52.304;4.870;2022-10-16T04:19:21;3.77;;;0.50;;
69244;SDS011;56357;52.304;4.870;2022-10-16T04:21:47;3.58;;;0.52;;
69244;SDS011;56357;52.304;4.870;2022-10-16T04:24:14;3.60;;;0.63;;
69244;SDS011;56357;52.304;4.870;2022-10-16T04:26:40;2.95;;;0.50;;
69244;SDS011;56357;52.304;4.870;2022-10-16T04:29:06;3.83;;;0.52;;
69244;SDS011;56357;52.304;4.870;2022-10-16T04:31:33;4.07;;;0.60;;
69244;SDS011;56357;52.304;4.870;2022-10-16T04:33:59;4.10;;;0.70;;
69244;SDS011;56357;52.304;4.870;2022-10-16T04:36:26;2.53;;;0.50;;
69244;SDS011;56357;52.304;4.870;2022-10-16T04:38:52;3.20;;;0.55;;
69244;SDS011;56357;52.304;4.870;2022-10-16T04:41:18;3.13;;;0.57;;
69244;SDS011;56357;52.304;4.870;2022-10-16T04:43:45;3.87;;;0.50;;
69244;SDS011;56357;52.304;4.870;2022-10-16T04:46:11;3.92;;;0.70;;
69244;SDS011;56357;52.304;4.870;2022-10-16T04:48:37;4.10;;;0.60;;
69244;SDS011;56357;52.304;4.870;2022-10-16T04:51:04;4.28;;;0.57;;
69244;SDS011;56357;52.304;4.870;2022-10-16T04:53:30;3.63;;;0.50;;
69244;SDS011;56357;52.304;4.870;2022-10-16T04:55:57;4.53;;;0.60;;
69244;SDS011;56357;52.304;4.870;2022-10-16T04:58:23;5.35;;;0.75;;
69244;SDS011;56357;52.304;4.870;2022-10-16T05:00:49;3.17;;;0.60;;
69244;SDS011;56357;52.304;4.870;2022-10-16T05:03:16;3.05;;;0.50;;
69244;SDS011;56357;52.304;4.870;2022-10-16T05:05:43;2.97;;;0.60;;
69244;SDS011;56357;52.304;4.870;2022-10-16T05:08:10;4.27;;;0.73;;
69244;SDS011;56357;52.304;4.870;2022-10-16T05:10:38;4.20;;;0.70;;
69244;SDS011;56357;52.304;4.870;2022-10-16T05:13:05;3.55;;;0.50;;
69244;SDS011;56357;52.304;4.870;2022-10-16T05:15:31;4.03;;;0.60;;
69244;SDS011;56357;52.304;4.870;2022-10-16T05:17:57;4.32;;;0.75;;
69244;SDS011;56357;52.304;4.870;2022-10-16T05:20:24;3.63;;;0.40;;
69244;SDS011;56357;52.304;4.870;2022-10-16T05:22:50;3.70;;;0.60;;
69244;SDS011;56357;52.304;4.870;2022-10-16T05:25:16;4.18;;;0.75;;
69244;SDS011;56357;52.304;4.870;2022-10-16T05:27:43;3.08;;;0.52;;
69244;SDS011;56357;52.304;4.870;2022-10-16T05:30:12;4.72;;;0.60;;
69244;SDS011;56357;52.304;4.870;2022-10-16T05:32:39;2.60;;;0.40;;
69244;SDS011;56357;52.304;4.870;2022-10-16T05:35:05;3.15;;;0.40;;
69244;SDS011;56357;52.304;4.870;2022-10-16T05:37:32;3.83;;;0.73;;
69244;SDS011;56357;52.304;4.870;2022-10-16T05:39:58;4.93;;;0.45;;
69244;SDS011;56357;52.304;4.870;2022-10-16T05:42:24;4.45;;;0.85;;
69244;SDS011;56357;52.304;4.870;2022-10-16T05:44:51;3.27;;;0.40;;
69244;SDS011;56357;52.304;4.870;2022-10-16T05:47:17;5.80;;;0.50;;
69244;SDS011;56357;52.304;4.870;2022-10-16T05:49:45;3.05;;;0.65;;
69244;SDS011;56357;52.304;4.870;2022-10-16T05:52:12;5.57;;;0.60;;
69244;SDS011;56357;52.304;4.870;2022-10-16T05:54:38;3.35;;;0.60;;
69244;SDS011;56357;52.304;4.870;2022-10-16T05:57:04;8.10;;;0.50;;
69244;SDS011;56357;52.304;4.870;2022-10-16T05:59:31;6.70;;;0.70;;
69244;SDS011;56357;52.304;4.870;2022-10-16T06:01:58;3.70;;;0.43;;
69244;SDS011;56357;52.304;4.870;2022-10-16T06:04:24;3.72;;;0.50;;
69244;SDS011;56357;52.304;4.870;2022-10-16T06:06:50;4.10;;;0.50;;
69244;SDS011;56357;52.304;4.870;2022-10-16T06:09:17;3.83;;;0.60;;
69244;SDS011;56357;52.304;4.870;2022-10-16T06:11:43;4.82;;;0.40;;
69244;SDS011;56357;52.304;4.870;2022-10-16T06:14:09;4.07;;;0.73;;
69244;SDS011;56357;52.304;4.870;2022-10-16T06:16:37;3.83;;;0.60;;
69244;SDS011;56357;52.304;4.870;2022-10-16T06:19:03;4.85;;;0.60;;
69244;SDS011;56357;52.304;4.870;2022-10-16T06:21:31;7.23;;;1.00;;
69244;SDS011;56357;52.304;4.870;2022-10-16T06:23:58;4.68;;;0.60;;
69244;SDS011;56357;52.304;4.870;2022-10-16T06:26:25;4.10;;;0.75;;
69244;SDS011;56357;52.304;4.870;2022-10-16T06:28:54;4.80;;;0.50;;
69244;SDS011;56357;52.304;4.870;2022-10-16T06:31:21;3.75;;;0.73;;
69244;SDS011;56357;52.304;4.870;2022-10-16T06:33:51;4.67;;;0.60;;
69244;SDS011;56357;52.304;4.870;2022-10-16T06:36:17;3.45;;;0.75;;
69244;SDS011;56357;52.304;4.870;2022-10-16T06:38:44;6.22;;;0.60;;
69244;SDS011;56357;52.304;4.870;2022-10-16T06:41:14;5.90;;;1.00;;
69244;SDS011;56357;52.304;4.870;2022-10-16T06:43:43;7.40;;;0.77;;
69244;SDS011;56357;52.304;4.870;2022-10-16T06:46:10;5.57;;;0.83;;
69244;SDS011;56357;52.304;4.870;2022-10-16T06:48:38;5.65;;;0.98;;
69244;SDS011;56357;52.304;4.870;2022-10-16T06:53:37;6.15;;;0.80;;
69244;SDS011;56357;52.304;4.870;2022-10-16T06:56:10;4.43;;;0.60;;
69244;SDS011;56357;52.304;4.870;2022-10-16T06:58:38;3.50;;;0.50;;
69244;SDS011;56357;52.304;4.870;2022-10-16T07:01:05;6.68;;;0.70;;
69244;SDS011;56357;52.304;4.870;2022-10-16T07:03:32;5.28;;;0.70;;
69244;SDS011;56357;52.304;4.870;2022-10-16T07:06:01;6.82;;;0.80;;
69244;SDS011;56357;52.304;4.870;2022-10-16T07:08:35;4.68;;;0.70;;
69244;SDS011;56357;52.304;4.870;2022-10-16T07:11:07;4.53;;;1.07;;
69244;SDS011;56357;52.304;4.870;2022-10-16T07:13:35;5.97;;;0.77;;
69244;SDS011;56357;52.304;4.870;2022-10-16T07:16:04;4.72;;;0.75;;
69244;SDS011;56357;52.304;4.870;2022-10-16T07:18:34;5.03;;;0.60;;
69244;SDS011;56357;52.304;4.870;2022-10-16T07:21:07;4.13;;;0.90;;
69244;SDS011;56357;52.304;4.870;2022-10-16T07:23:45;6.43;;;0.63;;
69244;SDS011;56357;52.304;4.870;2022-10-16T07:26:16;6.07;;;0.63;;
69244;SDS011;56357;52.304;4.870;2022-10-16T07:28:43;5.93;;;0.90;;
69244;SDS011;56357;52.304;4.870;2022-10-16T07:31:11;4.78;;;0.68;;
69244;SDS011;56357;52.304;4.870;2022-10-16T07:33:39;5.55;;;0.60;;
69244;SDS011;56357;52.304;4.870;2022-10-16T07:36:09;5.57;;;0.70;;
69244;SDS011;56357;52.304;4.870;2022-10-16T07:38:36;6.13;;;0.90;;
69244;SDS011;56357;52.304;4.870;2022-10-16T07:41:03;9.10;;;1.13;;
69244;SDS011;56357;52.304;4.870;2022-10-16T07:43:32;4.07;;;0.63;;
69244;SDS011;56357;52.304;4.870;2022-10-16T07:45:59;7.72;;;0.88;;
69244;SDS011;56357;52.304;4.870;2022-10-16T07:48:29;7.10;;;1.03;;
69244;SDS011;56357;52.304;4.870;2022-10-16T07:51:04;8.00;;;1.10;;
69244;SDS011;56357;52.304;4.870;2022-10-16T07:53:32;5.53;;;0.68;;
69244;SDS011;56357;52.304;4.870;2022-10-16T07:56:00;5.72;;;0.70;;
69244;SDS011;56357;52.304;4.870;2022-10-16T07:58:30;5.30;;;0.70;;
69244;SDS011;56357;52.304;4.870;2022-10-16T08:00:57;7.07;;;0.97;;
69244;SDS011;56357;52.304;4.870;2022-10-16T08:03:24;9.00;;;1.00;;
69244;SDS011;56357;52.304;4.870;2022-10-16T08:05:51;7.03;;;1.35;;
69244;SDS011;56357;52.304;4.870;2022-10-16T08:08:18;12.40;;;0.88;;
69244;SDS011;56357;52.304;4.870;2022-10-16T08:10:45;10.18;;;1.20;;
69244;SDS011;56357;52.304;4.870;2022-10-16T08:13:12;10.03;;;1.07;;
69244;SDS011;56357;52.304;4.870;2022-10-16T08:15:39;7.28;;;1.00;;
69244;SDS011;56357;52.304;4.870;2022-10-16T08:18:07;7.85;;;0.80;;
69244;SDS011;56357;52.304;4.870;2022-10-16T08:20:33;7.80;;;0.73;;
69244;SDS011;56357;52.304;4.870;2022-10-16T08:23:00;6.75;;;0.90;;
69244;SDS011;56357;52.304;4.870;2022-10-16T08:25:27;6.07;;;0.60;;
69244;SDS011;56357;52.304;4.870;2022-10-16T08:27:53;5.50;;;0.60;;
69244;SDS011;56357;52.304;4.870;2022-10-16T08:30:20;7.22;;;0.90;;
69244;SDS011;56357;52.304;4.870;2022-10-16T08:32:47;6.63;;;0.88;;
69244;SDS011;56357;52.304;4.870;2022-10-16T08:35:14;5.60;;;0.82;;
69244;SDS011;56357;52.304;4.870;2022-10-16T08:37:41;6.60;;;0.60;;
69244;SDS011;56357;52.304;4.870;2022-10-16T08:40:51;9.77;;;0.93;;
69244;SDS011;56357;52.304;4.870;2022-10-16T08:49:08;7.68;;;1.10;;
69244;SDS011;56357;52.304;4.870;2022-10-16T08:51:38;7.43;;;0.93;;
69244;SDS011;56357;52.304;4.870;2022-10-16T08:54:40;7.88;;;1.10;;
69244;SDS011;56357;52.304;4.870;2022-10-16T08:57:09;8.82;;;0.77;;
69244;SDS011;56357;52.304;4.870;2022-10-16T08:59:37;9.27;;;1.08;;
69244;SDS011;56357;52.304;4.870;2022-10-16T09:02:12;7.38;;;0.82;;
69244;SDS011;56357;52.304;4.870;2022-10-16T09:12:54;7.35;;;0.80;;
69244;SDS011;56357;52.304;4.870;2022-10-16T09:15:44;5.85;;;0.90;;
69244;SDS011;56357;52.304;4.870;2022-10-16T09:18:37;8.67;;;0.80;;
69244;SDS011;56357;52.304;4.870;2022-10-16T09:23:50;6.57;;;0.82;;
69244;SDS011;56357;52.304;4.870;2022-10-16T09:26:16;7.47;;;0.90;;
69244;SDS011;56357;52.304;4.870;2022-10-16T09:28:46;11.52;;;1.00;;
69244;SDS011;56357;52.304;4.870;2022-10-16T09:31:14;6.00;;;0.80;;
69244;SDS011;56357;52.304;4.870;2022-10-16T09:33:43;6.68;;;1.00;;
69244;SDS011;56357;52.304;4.870;2022-10-16T09:36:13;5.60;;;0.88;;
69244;SDS011;56357;52.304;4.870;2022-10-16T09:38:40;9.75;;;0.90;;
69244;SDS011;56357;52.304;4.870;2022-10-16T09:41:17;6.75;;;1.00;;
69244;SDS011;56357;52.304;4.870;2022-10-16T09:43:56;9.77;;;1.27;;
69244;SDS011;56357;52.304;4.870;2022-10-16T09:46:35;7.50;;;1.02;;
69244;SDS011;56357;52.304;4.870;2022-10-16T09:49:04;8.38;;;0.80;;
69244;SDS011;56357;52.304;4.870;2022-10-16T09:51:45;8.70;;;0.98;;
69244;SDS011;56357;52.304;4.870;2022-10-16T09:54:13;6.35;;;0.85;;
69244;SDS011;56357;52.304;4.870;2022-10-16T09:56:41;5.67;;;0.80;;
69244;SDS011;56357;52.304;4.870;2022-10-16T09:59:17;6.10;;;1.15;;
69244;SDS011;56357;52.304;4.870;2022-10-16T10:01:48;8.25;;;0.88;;
69244;SDS011;56357;52.304;4.870;2022-10-16T10:04:17;13.38;;;1.25;;
69244;SDS011;56357;52.304;4.870;2022-10-16T10:11:41;8.40;;;1.10;;
69244;SDS011;56357;52.304;4.870;2022-10-16T10:14:27;8.10;;;0.98;;
69244;SDS011;56357;52.304;4.870;2022-10-16T10:20:33;7.53;;;1.13;;
69244;SDS011;56357;52.304;4.870;2022-10-16T10:22:45;5.53;;;0.77;;
69244;SDS011;56357;52.304;4.870;2022-10-16T10:27:48;7.28;;;0.70;;
69244;SDS011;56357;52.304;4.870;2022-10-16T10:38:20;4.82;;;0.80;;
69244;SDS011;56357;52.304;4.870;2022-10-16T10:41:06;8.10;;;1.10;;
69244;SDS011;56357;52.304;4.870;2022-10-16T10:44:01;5.97;;;0.85;;
69244;SDS011;56357;52.304;4.870;2022-10-16T10:46:50;6.55;;;0.60;;
69244;SDS011;56357;52.304;4.870;2022-10-16T11:06:25;5.95;;;0.80;;
69244;SDS011;56357;52.304;4.870;2022-10-16T11:11:38;5.55;;;0.90;;
69244;SDS011;56357;52.304;4.870;2022-10-16T11:14:24;5.25;;;0.90;;
69244;SDS011;56357;52.304;4.870;2022-10-16T11:16:59;6.00;;;1.00;;
69244;SDS011;56357;52.304;4.870;2022-10-16T11:25:04;5.82;;;0.80;;
69244;SDS011;56357;52.304;4.870;2022-10-16T11:27:47;8.30;;;1.00;;
69244;SDS011;56357;52.304;4.870;2022-10-16T11:30:19;4.57;;;0.97;;
69244;SDS011;56357;52.304;4.870;2022-10-16T11:33:05;3.90;;;0.50;;
69244;SDS011;56357;52.304;4.870;2022-10-16T11:35:49;4.25;;;0.70;;
69244;SDS011;56357;52.304;4.870;2022-10-16T11:38:44;4.72;;;0.85;;
69244;SDS011;56357;52.304;4.870;2022-10-16T11:43:52;6.20;;;1.20;;
69244;SDS011;56357;52.304;4.870;2022-10-16T11:46:30;5.72;;;1.00;;
69244;SDS011;56357;52.304;4.870;2022-10-16T11:49:14;4.95;;;1.20;;
69244;SDS011;56357;52.304;4.870;2022-10-16T11:51:48;4.75;;;0.80;;
69244;SDS011;56357;52.304;4.870;2022-10-16T11:54:25;10.07;;;1.38;;
69244;SDS011;56357;52.304;4.870;2022-10-16T11:56:59;3.67;;;1.03;;
69244;SDS011;56357;52.304;4.870;2022-10-16T11:59:36;5.22;;;0.63;;
69244;SDS011;56357;52.304;4.870;2022-10-16T12:05:05;7.07;;;1.48;;
69244;SDS011;56357;52.304;4.870;2022-10-16T12:07:39;6.68;;;0.70;;
69244;SDS011;56357;52.304;4.870;2022-10-16T12:10:20;7.87;;;0.90;;
69244;SDS011;56357;52.304;4.870;2022-10-16T12:12:48;4.65;;;0.60;;
69244;SDS011;56357;52.304;4.870;2022-10-16T12:15:23;8.40;;;1.20;;
69244;SDS011;56357;52.304;4.870;2022-10-16T12:17:52;6.32;;;1.05;;
69244;SDS011;56357;52.304;4.870;2022-10-16T12:20:20;7.43;;;0.90;;
69244;SDS011;56357;52.304;4.870;2022-10-16T12:22:54;5.80;;;1.00;;
69244;SDS011;56357;52.304;4.870;2022-10-16T12:30:35;6.93;;;1.10;;
69244;SDS011;56357;52.304;4.870;2022-10-16T12:33:06;7.65;;;1.20;;
69244;SDS011;56357;52.304;4.870;2022-10-16T12:35:48;7.23;;;1.20;;
69244;SDS011;56357;52.304;4.870;2022-10-16T12:38:18;6.45;;;0.70;;
69244;SDS011;56357;52.304;4.870;2022-10-16T12:41:04;8.40;;;1.00;;
69244;SDS011;56357;52.304;4.870;2022-10-16T12:48:40;5.80;;;0.93;;
69244;SDS011;56357;52.304;4.870;2022-10-16T12:51:11;6.75;;;0.95;;
69244;SDS011;56357;52.304;4.870;2022-10-16T12:56:33;6.72;;;0.80;;
69244;SDS011;56357;52.304;4.870;2022-10-16T12:59:38;6.05;;;0.80;;
69244;SDS011;56357;52.304;4.870;2022-10-16T13:02:21;7.30;;;1.10;;
69244;SDS011;56357;52.304;4.870;2022-10-16T13:10:14;6.65;;;0.85;;
69244;SDS011;56357;52.304;4.870;2022-10-16T13:15:52;8.00;;;1.10;;
69244;SDS011;56357;52.304;4.870;2022-10-16T13:18:49;4.20;;;0.75;;
69244;SDS011;56357;52.304;4.870;2022-10-16T13:21:32;7.75;;;1.15;;
69244;SDS011;56357;52.304;4.870;2022-10-16T13:27:05;5.05;;;0.73;;
69244;SDS011;56357;52.304;4.870;2022-10-16T13:29:40;5.73;;;0.73;;
69244;SDS011;56357;52.304;4.870;2022-10-16T13:32:08;4.55;;;0.93;;
69244;SDS011;56357;52.304;4.870;2022-10-16T13:34:43;3.97;;;0.75;;
69244;SDS011;56357;52.304;4.870;2022-10-16T13:37:18;6.15;;;0.70;;
69244;SDS011;56357;52.304;4.870;2022-10-16T13:39:47;8.48;;;0.75;;
69244;SDS011;56357;52.304;4.870;2022-10-16T13:42:19;7.30;;;1.17;;
69244;SDS011;56357;52.304;4.870;2022-10-16T13:44:50;6.75;;;0.82;;
69244;SDS011;56357;52.304;4.870;2022-10-16T13:47:19;5.43;;;1.33;;
69244;SDS011;56357;52.304;4.870;2022-10-16T13:50:00;5.63;;;0.80;;
69244;SDS011;56357;52.304;4.870;2022-10-16T13:52:38;6.25;;;1.02;;
69244;SDS011;56357;52.304;4.870;2022-10-16T13:57:42;8.73;;;0.80;;
69244;SDS011;56357;52.304;4.870;2022-10-16T14:00:23;6.60;;;0.80;;
69244;SDS011;56357;52.304;4.870;2022-10-16T14:03:00;7.22;;;1.23;;
69244;SDS011;56357;52.304;4.870;2022-10-16T14:05:29;10.32;;;1.10;;
69244;SDS011;56357;52.304;4.870;2022-10-16T14:07:55;9.30;;;1.03;;
69244;SDS011;56357;52.304;4.870;2022-10-16T14:10:27;6.93;;;0.90;;
69244;SDS011;56357;52.304;4.870;2022-10-16T14:13:04;8.23;;;1.10;;
69244;SDS011;56357;52.304;4.870;2022-10-16T14:15:33;7.20;;;1.10;;
69244;SDS011;56357;52.304;4.870;2022-10-16T14:18:01;8.30;;;1.00;;
69244;SDS011;56357;52.304;4.870;2022-10-16T14:20:33;7.13;;;0.90;;
69244;SDS011;56357;52.304;4.870;2022-10-16T14:25:43;5.20;;;0.82;;
69244;SDS011;56357;52.304;4.870;2022-10-16T14:36:00;6.32;;;0.90;;
69244;SDS011;56357;52.304;4.870;2022-10-16T14:38:29;7.72;;;1.58;;
69244;SDS011;56357;52.304;4.870;2022-10-16T14:40:57;5.75;;;1.45;;
69244;SDS011;56357;52.304;4.870;2022-10-16T14:43:32;10.13;;;2.80;;
69244;SDS011;56357;52.304;4.870;2022-10-16T14:46:02;11.53;;;2.27;;
69244;SDS011;56357;52.304;4.870;2022-10-16T14:48:32;6.28;;;2.00;;
69244;SDS011;56357;52.304;4.870;2022-10-16T14:50:59;8.52;;;2.00;;
69244;SDS011;56357;52.304;4.870;2022-10-16T14:53:26;8.75;;;1.40;;
69244;SDS011;56357;52.304;4.870;2022-10-16T14:55:52;8.02;;;1.23;;
69244;SDS011;56357;52.304;4.870;2022-10-16T14:58:19;7.80;;;1.50;;
69244;SDS011;56357;52.304;4.870;2022-10-16T15:00:48;10.00;;;1.60;;
69244;SDS011;56357;52.304;4.870;2022-10-16T15:03:15;8.15;;;1.33;;
69244;SDS011;56357;52.304;4.870;2022-10-16T15:05:41;6.70;;;0.93;;
69244;SDS011;56357;52.304;4.870;2022-10-16T15:08:08;6.85;;;1.10;;
69244;SDS011;56357;52.304;4.870;2022-10-16T15:10:37;9.17;;;1.00;;
69244;SDS011;56357;52.304;4.870;2022-10-16T15:13:05;6.32;;;1.50;;
69244;SDS011;56357;52.304;4.870;2022-10-16T15:15:36;5.80;;;1.00;;
69244;SDS011;56357;52.304;4.870;2022-10-16T15:18:04;5.75;;;1.30;;
69244;SDS011;56357;52.304;4.870;2022-10-16T15:20:32;9.05;;;1.05;;
69244;SDS011;56357;52.304;4.870;2022-10-16T15:23:01;7.23;;;1.30;;
69244;SDS011;56357;52.304;4.870;2022-10-16T15:25:45;7.18;;;1.20;;
69244;SDS011;56357;52.304;4.870;2022-10-16T15:28:14;10.13;;;1.45;;
69244;SDS011;56357;52.304;4.870;2022-10-16T15:30:42;7.43;;;1.17;;
69244;SDS011;56357;52.304;4.870;2022-10-16T15:33:17;7.20;;;1.27;;
69244;SDS011;56357;52.304;4.870;2022-10-16T15:35:46;6.27;;;0.80;;
69244;SDS011;56357;52.304;4.870;2022-10-16T15:38:14;6.35;;;1.15;;
69244;SDS011;56357;52.304;4.870;2022-10-16T15:40:41;7.63;;;1.10;;
69244;SDS011;56357;52.304;4.870;2022-10-16T15:43:07;10.68;;;0.90;;
69244;SDS011;56357;52.304;4.870;2022-10-16T15:45:35;5.47;;;0.98;;
69244;SDS011;56357;52.304;4.870;2022-10-16T15:48:01;6.37;;;0.60;;
69244;SDS011;56357;52.304;4.870;2022-10-16T15:50:28;5.88;;;0.82;;
69244;SDS011;56357;52.304;4.870;2022-10-16T15:52:56;7.57;;;0.70;;
69244;SDS011;56357;52.304;4.870;2022-10-16T15:55:23;8.57;;;0.80;;
69244;SDS011;56357;52.304;4.870;2022-10-16T15:57:49;5.70;;;1.08;;
69244;SDS011;56357;52.304;4.870;2022-10-16T16:00:17;6.87;;;0.80;;
69244;SDS011;56357;52.304;4.870;2022-10-16T16:02:49;8.50;;;0.90;;
69244;SDS011;56357;52.304;4.870;2022-10-16T16:05:17;6.38;;;1.20;;
69244;SDS011;56357;52.304;4.870;2022-10-16T16:07:44;6.55;;;1.02;;
69244;SDS011;56357;52.304;4.870;2022-10-16T16:10:11;7.65;;;0.95;;
69244;SDS011;56357;52.304;4.870;2022-10-16T16:12:38;8.30;;;1.00;;
69244;SDS011;56357;52.304;4.870;2022-10-16T16:15:05;7.13;;;0.90;;
69244;SDS011;56357;52.304;4.870;2022-10-16T16:17:33;5.50;;;0.80;;
69244;SDS011;56357;52.304;4.870;2022-10-16T16:20:01;5.80;;;0.85;;
69244;SDS011;56357;52.304;4.870;2022-10-16T16:22:27;10.65;;;1.00;;
69244;SDS011;56357;52.304;4.870;2022-10-16T16:24:53;7.27;;;0.67;;
69244;SDS011;56357;52.304;4.870;2022-10-16T16:27:20;7.43;;;1.23;;
69244;SDS011;56357;52.304;4.870;2022-10-16T16:29:46;8.23;;;0.80;;
69244;SDS011;56357;52.304;4.870;2022-10-16T16:32:13;7.28;;;1.08;;
69244;SDS011;56357;52.304;4.870;2022-10-16T16:34:39;7.15;;;0.98;;
69244;SDS011;56357;52.304;4.870;2022-10-16T16:37:06;6.50;;;1.20;;
69244;SDS011;56357;52.304;4.870;2022-10-16T16:39:32;7.78;;;0.73;;
69244;SDS011;56357;52.304;4.870;2022-10-16T16:41:58;8.05;;;0.95;;
69244;SDS011;56357;52.304;4.870;2022-10-16T16:44:25;6.00;;;0.90;;
69244;SDS011;56357;52.304;4.870;2022-10-16T16:46:51;7.88;;;1.40;;
69244;SDS011;56357;52.304;4.870;2022-10-16T16:49:18;9.20;;;1.00;;
69244;SDS011;56357;52.304;4.870;2022-10-16T16:51:44;4.22;;;0.73;;
69244;SDS011;56357;52.304;4.870;2022-10-16T16:54:11;5.28;;;0.70;;
69244;SDS011;56357;52.304;4.870;2022-10-16T16:56:38;7.22;;;1.30;;
69244;SDS011;56357;52.304;4.870;2022-10-16T16:59:10;9.07;;;1.10;;
69244;SDS011;56357;52.304;4.870;2022-10-16T17:01:39;7.67;;;0.90;;
69244;SDS011;56357;52.304;4.870;2022-10-16T17:04:06;8.20;;;1.30;;